createdAt,value
2019-04-07T00:00:10.524Z,49.8
2019-04-07T00:01:00.668Z,49.8
2019-04-07T00:01:48.933Z,49.8
2019-04-07T00:02:39.486Z,49.8
2019-04-07T00:03:29.439Z,49.8
2019-04-07T00:04:18.420Z,49.8
2019-04-07T00:05:21.742Z,49.8
2019-04-07T00:05:58.547Z,49.8
2019-04-07T00:06:48.670Z,49.8
2019-04-07T00:07:40.142Z,49.7
2019-04-07T00:08:29.507Z,49.7
2019-04-07T00:09:20.414Z,49.7
2019-04-07T00:10:07.378Z,49.7
2019-04-07T00:10:57.843Z,49.7
2019-04-07T00:11:49.657Z,49.7
2019-04-07T00:12:38.944Z,49.7
2019-04-07T00:13:28.197Z,49.7
2019-04-07T00:14:19.043Z,49.6
2019-04-07T00:15:11.832Z,49.6
2019-04-07T00:15:59.214Z,49.6
2019-04-07T00:16:48.560Z,49.6
2019-04-07T00:17:38.728Z,49.6
2019-04-07T00:18:29.754Z,49.6
2019-04-07T00:19:19.859Z,49.6
2019-04-07T00:20:10.992Z,49.6
2019-04-07T00:21:01.412Z,49.6
2019-04-07T00:21:50.107Z,49.6
2019-04-07T00:22:39.709Z,49.6
2019-04-07T00:23:29.458Z,49.6
2019-04-07T00:24:20.240Z,49.6
2019-04-07T00:25:08.899Z,49.6
2019-04-07T00:26:00.148Z,49.6
2019-04-07T00:26:49.263Z,49.6
2019-04-07T00:27:40.428Z,49.6
2019-04-07T00:28:28.519Z,49.6
2019-04-07T00:29:20.024Z,49.6
2019-04-07T00:30:10.520Z,49.6
2019-04-07T00:30:58.859Z,49.6
2019-04-07T00:31:49.156Z,49.6
2019-04-07T00:32:39.211Z,49.5
2019-04-07T00:33:32.666Z,49.5
2019-04-07T00:34:22.084Z,49.6
2019-04-07T00:35:33.736Z,49.5
2019-04-07T00:36:03.236Z,49.5
2019-04-07T00:36:50.874Z,49.5
2019-04-07T00:37:41.763Z,49.5
2019-04-07T00:38:31.447Z,49.5
2019-04-07T00:39:23.256Z,49.5
2019-04-07T00:40:14.207Z,49.5
2019-04-07T00:41:02.969Z,49.4
2019-04-07T00:41:52.934Z,49.5
2019-04-07T00:42:42.209Z,49.5
2019-04-07T00:43:32.846Z,49.4
2019-04-07T00:44:24.653Z,49.4
2019-04-07T00:45:12.394Z,49.4
2019-04-07T00:46:02.327Z,49.4
2019-04-07T00:46:54.040Z,49.4
2019-04-07T00:47:43.988Z,49.4
2019-04-07T00:48:33.276Z,49.4
2019-04-07T00:49:22.049Z,49.4
2019-04-07T00:50:14.118Z,49.4
2019-04-07T00:51:01.916Z,49.4
2019-04-07T00:51:54.828Z,49.4
2019-04-07T00:52:43.633Z,49.4
2019-04-07T00:53:32.589Z,49.4
2019-04-07T00:54:23.770Z,49.4
2019-04-07T00:55:14.677Z,49.4
2019-04-07T00:56:03.901Z,49.4
2019-04-07T00:56:51.772Z,49.4
2019-04-07T00:57:42.964Z,49.4
2019-04-07T00:58:34.885Z,49.3
2019-04-07T00:59:24.238Z,49.4
2019-04-07T01:00:13.332Z,49.3
2019-04-07T01:01:02.578Z,49.3
2019-04-07T01:01:53.713Z,49.3
2019-04-07T01:02:45.054Z,49.3
2019-04-07T01:03:33.662Z,49.3
2019-04-07T01:04:23.161Z,49.3
2019-04-07T01:05:12.651Z,49.3
2019-04-07T01:06:03.877Z,49.3
2019-04-07T01:06:53.616Z,49.3
2019-04-07T01:07:46.320Z,49.3
2019-04-07T01:08:35.006Z,49.3
2019-04-07T01:09:24.507Z,49.3
2019-04-07T01:10:13.969Z,49.3
2019-04-07T01:11:02.375Z,49.3
2019-04-07T01:11:55.866Z,49.3
2019-04-07T01:12:44.556Z,49.3
2019-04-07T01:13:34.085Z,49.3
2019-04-07T01:14:22.438Z,49.3
2019-04-07T01:15:15.094Z,49.3
2019-04-07T01:16:04.144Z,49.3
2019-04-07T01:16:54.521Z,49.3
2019-04-07T01:17:44.526Z,49.3
2019-04-07T01:18:36.041Z,49.3
2019-04-07T01:19:26.311Z,49.2
2019-04-07T01:20:15.143Z,49.2
2019-04-07T01:21:04.813Z,49.2
2019-04-07T01:21:55.722Z,49.2
2019-04-07T01:22:45.185Z,49.2
2019-04-07T01:23:34.743Z,49.2
2019-04-07T01:24:26.678Z,49.2
2019-04-07T01:25:14.866Z,49.2
2019-04-07T01:26:03.901Z,49.1
2019-04-07T01:26:54.916Z,49.1
2019-04-07T01:27:45.723Z,49.1
2019-04-07T01:28:33.831Z,49.1
2019-04-07T01:29:24.481Z,49.1
2019-04-07T01:30:17.176Z,49.1
2019-04-07T01:31:04.361Z,49.1
2019-04-07T01:31:55.960Z,49.1
2019-04-07T01:32:44.556Z,49.1
2019-04-07T01:33:35.088Z,49.1
2019-04-07T01:34:26.168Z,49.1
2019-04-07T01:35:18.158Z,49.1
2019-04-07T01:36:05.802Z,49.1
2019-04-07T01:36:54.475Z,49.1
2019-04-07T01:37:47.743Z,49.1
2019-04-07T01:38:36.679Z,49.1
2019-04-07T01:39:25.653Z,49.1
2019-04-07T01:40:16.833Z,49.1
2019-04-07T01:41:08.330Z,49.1
2019-04-07T01:41:56.197Z,49.1
2019-04-07T01:42:46.600Z,49.1
2019-04-07T01:43:35.995Z,49.1
2019-04-07T01:44:27.558Z,49
2019-04-07T01:45:18.571Z,49
2019-04-07T01:46:06.862Z,49.1
2019-04-07T01:46:54.614Z,49
2019-04-07T01:47:45.453Z,49
2019-04-07T01:48:35.564Z,49
2019-04-07T01:49:24.747Z,49
2019-04-07T01:50:18.517Z,49
2019-04-07T01:51:06.177Z,49
2019-04-07T01:51:56.459Z,48.9
2019-04-07T01:52:45.868Z,48.9
2019-04-07T01:53:36.904Z,49
2019-04-07T01:54:28.822Z,49
2019-04-07T01:55:16.707Z,48.9
2019-04-07T01:56:07.580Z,48.9
2019-04-07T01:56:56.385Z,48.9
2019-04-07T01:57:48.554Z,48.9
2019-04-07T01:58:39.129Z,48.9
2019-04-07T01:59:27.739Z,48.9
2019-04-07T02:00:16.506Z,48.9
2019-04-07T02:01:07.726Z,48.9
2019-04-07T02:01:59.305Z,48.9
2019-04-07T02:02:48.013Z,48.9
2019-04-07T02:03:39.714Z,48.9
2019-04-07T02:04:28.296Z,48.9
2019-04-07T02:05:17.594Z,48.9
2019-04-07T02:06:11.701Z,48.9
2019-04-07T02:06:58.521Z,48.9
2019-04-07T02:07:47.861Z,48.9
2019-04-07T02:08:38.614Z,48.9
2019-04-07T02:09:30.507Z,48.9
2019-04-07T02:10:18.782Z,48.9
2019-04-07T02:11:08.683Z,48.9
2019-04-07T02:11:58.203Z,48.8
2019-04-07T02:12:49.779Z,48.8
2019-04-07T02:13:40.966Z,48.8
2019-04-07T02:14:29.088Z,48.8
2019-04-07T02:15:19.542Z,48.8
2019-04-07T02:16:08.132Z,48.8
2019-04-07T02:17:00.664Z,48.8
2019-04-07T02:17:49.558Z,48.8
2019-04-07T02:18:40.023Z,48.8
2019-04-07T02:19:29.300Z,48.8
2019-04-07T02:20:19.912Z,48.8
2019-04-07T02:21:11.181Z,48.8
2019-04-07T02:21:59.171Z,48.8
2019-04-07T02:22:48.673Z,48.8
2019-04-07T02:23:38.171Z,48.8
2019-04-07T02:24:31.853Z,48.8
2019-04-07T02:25:20.714Z,48.8
2019-04-07T02:26:09.732Z,48.8
2019-04-07T02:26:58.629Z,48.8
2019-04-07T02:27:51.116Z,48.8
2019-04-07T02:28:39.809Z,48.8
2019-04-07T02:29:30.733Z,48.7
2019-04-07T02:30:23.440Z,48.7
2019-04-07T02:31:10.818Z,48.7
2019-04-07T02:32:01.963Z,48.7
2019-04-07T02:32:54.956Z,48.7
2019-04-07T02:33:41.067Z,48.7
2019-04-07T02:34:31.622Z,48.7
2019-04-07T02:35:21.403Z,48.7
2019-04-07T02:36:39.345Z,48.7
2019-04-07T02:37:02.969Z,48.7
2019-04-07T02:37:51.475Z,48.7
2019-04-07T02:38:41.026Z,48.6
2019-04-07T02:39:32.525Z,48.6
2019-04-07T02:40:21.955Z,48.6
2019-04-07T02:41:13.409Z,48.6
2019-04-07T02:42:01.292Z,48.6
2019-04-07T02:42:52.145Z,48.6
2019-04-07T02:43:40.247Z,48.6
2019-04-07T02:44:34.097Z,48.6
2019-04-07T02:45:23.540Z,48.6
2019-04-07T02:46:12.893Z,48.6
2019-04-07T02:47:01.830Z,48.6
2019-04-07T02:47:51.819Z,48.6
2019-04-07T02:48:41.233Z,48.6
2019-04-07T02:49:33.815Z,48.6
2019-04-07T02:50:21.983Z,48.6
2019-04-07T02:51:11.180Z,48.6
2019-04-07T02:52:00.670Z,48.6
2019-04-07T02:52:55.267Z,48.6
2019-04-07T02:53:44.107Z,48.6
2019-04-07T02:54:31.803Z,48.6
2019-04-07T02:55:21.659Z,48.6
2019-04-07T02:56:13.927Z,48.6
2019-04-07T02:57:02.241Z,48.6
2019-04-07T02:57:52.838Z,48.5
2019-04-07T02:58:41.836Z,48.6
2019-04-07T02:59:33.311Z,48.5
2019-04-07T03:00:25.091Z,48.5
2019-04-07T03:01:13.641Z,48.5
2019-04-07T03:02:02.779Z,48.5
2019-04-07T03:02:54.479Z,48.5
2019-04-07T03:03:44.746Z,48.5
2019-04-07T03:07:29.095Z,48.4
2019-04-07T03:08:03.690Z,48.4
2019-04-07T03:08:54.548Z,48.4
2019-04-07T03:09:57.823Z,48.4
2019-04-07T03:10:33.091Z,48.4
2019-04-07T03:11:26.154Z,48.4
2019-04-07T03:12:12.413Z,48.4
2019-04-07T03:13:07.298Z,48.4
2019-04-07T03:13:54.725Z,48.4
2019-04-07T03:14:43.919Z,48.4
2019-04-07T03:15:34.308Z,48.4
2019-04-07T03:16:25.611Z,48.4
2019-04-07T03:17:14.410Z,48.4
2019-04-07T03:18:03.541Z,48.4
2019-04-07T03:18:54.436Z,48.4
2019-04-07T03:19:43.994Z,48.4
2019-04-07T03:20:36.021Z,48.4
2019-04-07T03:21:25.136Z,48.4
2019-04-07T03:22:14.983Z,48.4
2019-04-07T03:23:06.339Z,48.4
2019-04-07T03:23:56.479Z,48.4
2019-04-07T03:24:44.997Z,48.3
2019-04-07T03:25:36.920Z,48.3
2019-04-07T03:26:26.772Z,48.3
2019-04-07T03:27:15.676Z,48.3
2019-04-07T03:28:06.720Z,48.3
2019-04-07T03:28:57.865Z,48.3
2019-04-07T03:30:03.805Z,48.3
2019-04-07T03:31:03.993Z,48.3
2019-04-07T03:31:56.101Z,48.3
2019-04-07T03:33:22.863Z,48.3
2019-04-07T03:34:38.581Z,48.3
2019-04-07T03:35:40.879Z,48.3
2019-04-07T03:37:54.701Z,48.3
2019-04-07T03:38:12.679Z,48.3
2019-04-07T03:39:03.932Z,48.3
2019-04-07T03:40:08.562Z,48.3
2019-04-07T03:40:41.629Z,48.3
2019-04-07T03:41:47.195Z,48.3
2019-04-07T03:42:21.007Z,48.3
2019-04-07T03:43:11.674Z,48.3
2019-04-07T03:44:07.600Z,48.2
2019-04-07T03:44:53.449Z,48.2
2019-04-07T03:45:41.357Z,48.2
2019-04-07T03:46:33.055Z,48.2
2019-04-07T03:47:23.999Z,48.2
2019-04-07T03:48:14.297Z,48.2
2019-04-07T03:49:02.503Z,48.2
2019-04-07T03:49:53.148Z,48.2
2019-04-07T03:50:43.003Z,48.2
2019-04-07T03:51:33.608Z,48.2
2019-04-07T03:52:26.676Z,48.2
2019-04-07T03:53:12.986Z,48.1
2019-04-07T03:54:03.390Z,48.1
2019-04-07T03:54:52.904Z,48.1
2019-04-07T03:55:58.367Z,48.1
2019-04-07T03:56:34.217Z,48.1
2019-04-07T03:57:22.505Z,48.1
2019-04-07T03:58:15.948Z,48.1
2019-04-07T03:59:03.876Z,48.1
2019-04-07T03:59:53.573Z,48.1
2019-04-07T04:00:43.988Z,48.1
2019-04-07T04:01:37.109Z,48.1
2019-04-07T04:02:23.678Z,48.1
2019-04-07T04:03:15.763Z,48.1
2019-04-07T04:04:03.955Z,48.1
2019-04-07T04:04:53.706Z,48.1
2019-04-07T04:05:45.074Z,48.1
2019-04-07T04:06:36.383Z,48.1
2019-04-07T04:07:44.743Z,48.1
2019-04-07T04:08:13.959Z,48.1
2019-04-07T04:09:04.133Z,48.1
2019-04-07T04:09:54.216Z,48.1
2019-04-07T04:10:46.072Z,48
2019-04-07T04:11:34.814Z,48.1
2019-04-07T04:12:24.329Z,48
2019-04-07T04:13:16.201Z,48
2019-04-07T04:14:05.099Z,48
2019-04-07T04:14:54.984Z,48
2019-04-07T04:15:47.315Z,48
2019-04-07T04:16:34.622Z,48
2019-04-07T04:17:25.589Z,48
2019-04-07T04:18:14.508Z,48
2019-04-07T04:19:08.816Z,48
2019-04-07T04:19:54.935Z,48
2019-04-07T04:20:45.386Z,47.9
2019-04-07T04:21:36.648Z,47.9
2019-04-07T04:22:26.523Z,47.9
2019-04-07T04:23:18.454Z,47.9
2019-04-07T04:24:08.785Z,47.9
2019-04-07T04:24:56.239Z,47.9
2019-04-07T04:25:49.552Z,47.9
2019-04-07T04:26:35.678Z,47.9
2019-04-07T04:27:26.215Z,47.9
2019-04-07T04:28:14.858Z,47.9
2019-04-07T04:29:08.832Z,47.9
2019-04-07T04:30:01.083Z,47.9
2019-04-07T04:30:47.025Z,47.9
2019-04-07T04:31:34.504Z,47.9
2019-04-07T04:32:26.561Z,47.9
2019-04-07T04:33:14.486Z,47.9
2019-04-07T04:34:06.691Z,47.9
2019-04-07T04:34:57.510Z,47.9
2019-04-07T04:35:48.120Z,47.9
2019-04-07T04:36:51.747Z,47.9
2019-04-07T04:37:59.733Z,47.8
2019-04-07T04:38:18.271Z,47.8
2019-04-07T04:39:08.724Z,47.8
2019-04-07T04:40:00.329Z,47.9
2019-04-07T04:40:48.256Z,47.8
2019-04-07T04:41:39.144Z,47.8
2019-04-07T04:42:29.533Z,47.8
2019-04-07T04:43:20.028Z,47.8
2019-04-07T04:44:08.608Z,47.8
2019-04-07T04:44:59.321Z,47.8
2019-04-07T04:45:48.887Z,47.8
2019-04-07T04:46:40.735Z,47.8
2019-04-07T04:47:28.950Z,47.8
2019-04-07T04:48:19.531Z,47.8
2019-04-07T04:49:09.505Z,47.8
2019-04-07T04:49:58.193Z,47.8
2019-04-07T04:50:50.308Z,47.8
2019-04-07T04:51:46.113Z,47.8
2019-04-07T04:52:28.177Z,47.8
2019-04-07T04:53:18.748Z,47.8
2019-04-07T04:54:10.886Z,47.8
2019-04-07T04:54:59.039Z,47.8
2019-04-07T04:55:49.517Z,47.8
2019-04-07T04:56:39.369Z,47.7
2019-04-07T04:57:29.839Z,47.7
2019-04-07T06:05:13.040Z,47.3
2019-04-07T06:06:05.257Z,47.2
2019-04-07T06:07:01.874Z,47.2
2019-04-07T06:07:44.620Z,47.2
2019-04-07T06:08:52.999Z,47.2
2019-04-07T06:09:29.600Z,47.3
2019-04-07T06:10:13.164Z,47.2
2019-04-07T06:11:08.317Z,47.2
2019-04-07T06:11:54.945Z,47.2
2019-04-07T06:12:51.577Z,47.2
2019-04-07T06:13:36.535Z,47.2
2019-04-07T06:14:25.937Z,47.2
2019-04-07T06:15:21.889Z,47.2
2019-04-07T06:16:04.411Z,47.1
2019-04-07T06:16:58.836Z,47.1
2019-04-07T06:17:46.246Z,47.1
2019-04-07T06:18:39.910Z,47.1
2019-04-07T06:19:24.964Z,47.1
2019-04-07T06:20:21.061Z,47.1
2019-04-07T06:21:04.819Z,47.1
2019-04-07T06:21:54.824Z,47.1
2019-04-07T06:22:53.484Z,47.1
2019-04-07T06:23:37.517Z,47.1
2019-04-07T06:24:36.544Z,47.1
2019-04-07T06:25:16.352Z,47.1
2019-04-07T06:26:13.592Z,47.1
2019-04-07T06:26:55.034Z,47.1
2019-04-07T06:27:52.259Z,47.1
2019-04-07T06:28:34.306Z,47.1
2019-04-07T06:29:30.674Z,47.1
2019-04-07T06:30:15.606Z,47.1
2019-04-07T06:31:09.784Z,47.1
2019-04-07T06:31:56.166Z,47.1
2019-04-07T06:32:48.764Z,47
2019-04-07T06:33:42.483Z,47.1
2019-04-07T06:34:25.775Z,47
2019-04-07T06:35:20.863Z,47
2019-04-07T06:36:06.020Z,47
2019-04-07T06:37:02.356Z,47
2019-04-07T06:37:45.590Z,47
2019-04-07T06:38:56.764Z,47
2019-04-07T06:39:26.619Z,47
2019-04-07T06:40:23.102Z,46.9
2019-04-07T06:41:08.736Z,46.9
2019-04-07T06:41:55.054Z,46.9
2019-04-07T06:42:50.445Z,46.9
2019-04-07T06:43:42.206Z,46.9
2019-04-07T06:44:30.101Z,46.9
2019-04-07T06:45:20.484Z,46.9
2019-04-07T06:46:07.008Z,46.9
2019-04-07T06:47:04.661Z,46.9
2019-04-07T06:47:45.356Z,46.9
2019-04-07T06:48:42.003Z,46.9
2019-04-07T06:49:31.624Z,46.9
2019-04-07T06:50:22.411Z,46.9
2019-04-07T06:51:08.354Z,46.9
2019-04-07T06:52:04.969Z,46.9
2019-04-07T06:52:46.627Z,46.9
2019-04-07T06:53:35.607Z,46.9
2019-04-07T06:54:29.849Z,46.8
2019-04-07T06:55:15.653Z,46.8
2019-04-07T06:56:11.030Z,46.8
2019-04-07T06:56:57.537Z,46.8
2019-04-07T06:57:48.216Z,46.8
2019-04-07T06:58:45.485Z,46.8
2019-04-07T06:59:27.197Z,46.8
2019-04-07T07:00:23.030Z,46.8
2019-04-07T07:01:08.787Z,46.8
2019-04-07T07:02:00.766Z,46.8
2019-04-07T07:02:49.918Z,46.8
2019-04-07T07:05:26.615Z,46.8
2019-04-07T07:06:08.388Z,46.8
2019-04-07T07:07:11.694Z,46.8
2019-04-07T07:07:57.311Z,46.8
2019-04-07T07:09:01.983Z,46.8
2019-04-07T07:09:38.693Z,46.8
2019-04-07T07:10:45.602Z,46.8
2019-04-07T07:11:40.632Z,46.7
2019-04-07T07:12:02.667Z,46.7
2019-04-07T07:12:52.806Z,46.7
2019-04-07T07:13:56.592Z,46.7
2019-04-07T07:14:54.950Z,46.6
2019-04-07T07:15:41.779Z,46.6
2019-04-07T07:16:26.915Z,46.6
2019-04-07T07:17:22.988Z,46.6
2019-04-07T07:18:10.232Z,46.6
2019-04-07T07:19:04.198Z,46.6
2019-04-07T07:20:06.765Z,46.6
2019-04-07T07:20:38.187Z,46.6
2019-04-07T07:21:27.854Z,46.5
2019-04-07T07:22:22.213Z,46.5
2019-04-07T07:23:20.202Z,46.4
2019-04-07T07:23:56.840Z,46.4
2019-04-07T07:25:05.707Z,46.4
2019-04-07T07:25:40.879Z,46.3
2019-04-07T07:26:36.617Z,46.3
2019-04-07T07:27:17.876Z,46.3
2019-04-07T07:28:07.516Z,46.2
2019-04-07T07:29:13.184Z,46.2
2019-04-07T07:29:57.778Z,46.2
2019-04-07T07:30:35.953Z,46.2
2019-04-07T07:31:46.340Z,46.1
2019-04-07T07:32:18.554Z,46.1
2019-04-07T07:33:14.793Z,46.1
2019-04-07T07:33:57.155Z,46.1
2019-04-07T07:34:47.736Z,46.1
2019-04-07T07:35:36.055Z,46.1
2019-04-07T07:36:30.138Z,46.1
2019-04-07T07:37:18.337Z,46.1
2019-04-07T07:38:15.470Z,46.1
2019-04-07T10:06:18.764Z,43.3
2019-04-07T10:06:59.987Z,43.3
2019-04-07T10:07:55.383Z,43.3
2019-04-07T10:08:43.165Z,43.3
2019-04-07T10:09:31.336Z,43.3
2019-04-07T10:10:24.753Z,43.3
2019-04-07T10:11:12.860Z,43.3
2019-04-07T10:12:02.798Z,43.3
2019-04-07T10:12:52.991Z,43.2
2019-04-07T10:13:42.636Z,43.2
2019-04-07T10:14:32.849Z,43.3
2019-04-07T10:15:23.415Z,43.2
2019-04-07T10:16:18.220Z,43.2
2019-04-07T10:17:02.924Z,43.2
2019-04-07T10:17:53.333Z,43.2
2019-04-07T10:18:41.613Z,43.2
2019-04-07T10:19:35.116Z,43.1
2019-04-07T10:20:29.595Z,43.1
2019-04-07T10:21:13.221Z,43.1
2019-04-07T10:22:07.301Z,43.1
2019-04-07T10:22:55.247Z,43.1
2019-04-07T10:23:44.171Z,43.1
2019-04-07T10:24:35.706Z,43.1
2019-04-07T10:25:30.099Z,43.1
2019-04-07T10:26:14.580Z,43.1
2019-04-07T10:27:03.818Z,43.1
2019-04-07T10:27:55.596Z,43.1
2019-04-07T10:28:55.330Z,43.1
2019-04-07T10:29:35.317Z,43.1
2019-04-07T10:30:27.004Z,43.1
2019-04-07T10:31:14.683Z,43.1
2019-04-07T10:32:06.225Z,43.1
2019-04-07T10:32:55.029Z,43.1
2019-04-07T10:33:44.220Z,43.1
2019-04-07T10:34:34.130Z,43.1
2019-04-07T10:35:24.567Z,43
2019-04-07T10:36:15.916Z,43.1
2019-04-07T10:37:11.020Z,43
2019-04-07T10:38:00.797Z,43
2019-04-07T10:38:47.992Z,43
2019-04-07T10:39:35.442Z,43
2019-04-07T10:40:30.047Z,43
2019-04-07T10:41:18.564Z,43
2019-04-07T10:42:09.254Z,43
2019-04-07T10:43:01.450Z,43
2019-04-07T10:43:48.327Z,43
2019-04-07T10:44:37.792Z,43
2019-04-07T10:45:24.934Z,43
2019-04-07T10:46:18.399Z,43
2019-04-07T10:47:07.627Z,43
2019-04-07T10:47:58.826Z,43
2019-04-07T10:48:46.708Z,42.9
2019-04-07T10:49:37.274Z,43
2019-04-07T10:50:28.024Z,42.9
2019-04-07T10:51:16.452Z,43
2019-04-07T10:52:07.092Z,42.9
2019-04-07T10:52:58.951Z,42.9
2019-04-07T10:53:47.181Z,42.9
2019-04-07T10:54:35.172Z,42.9
2019-04-07T10:55:28.874Z,42.9
2019-04-07T10:56:17.021Z,42.9
2019-04-07T10:57:08.449Z,42.9
2019-04-07T10:57:59.738Z,42.9
2019-04-07T10:58:48.893Z,42.9
2019-04-07T10:59:36.841Z,42.9
2019-04-07T11:00:28.769Z,42.9
2019-04-07T11:01:19.387Z,42.8
2019-04-07T11:02:08.323Z,42.7
2019-04-07T11:03:05.325Z,42.5
2019-04-07T11:03:46.840Z,42.6
2019-04-07T11:04:38.824Z,42.6
2019-04-07T11:05:28.896Z,42.6
2019-04-07T11:06:21.514Z,42.7
2019-04-07T11:07:09.456Z,42.8
2019-04-07T11:07:58.068Z,42.8
2019-04-07T11:08:49.263Z,42.9
2019-04-07T11:09:37.321Z,42.9
2019-04-07T11:10:46.920Z,43
2019-04-07T11:11:19.037Z,43.1
2019-04-07T11:12:09.714Z,43.1
2019-04-07T11:13:01.709Z,43.2
2019-04-07T11:13:48.851Z,43.3
2019-04-07T11:14:39.382Z,43.3
2019-04-07T11:15:28.577Z,43.4
2019-04-07T11:16:19.076Z,43.4
2019-04-07T11:17:11.537Z,43.4
2019-04-07T11:17:59.249Z,43.5
2019-04-07T11:18:48.980Z,43.6
2019-04-07T11:19:41.001Z,43.6
2019-04-07T11:20:26.934Z,43.7
2019-04-07T11:21:18.769Z,43.8
2019-04-07T11:22:08.780Z,43.8
2019-04-07T11:22:59.532Z,43.8
2019-04-07T11:23:49.618Z,43.8
2019-04-07T11:24:41.410Z,43.8
2019-04-07T11:25:29.521Z,43.9
2019-04-07T11:26:19.249Z,43.9
2019-04-07T11:27:10.316Z,43.9
2019-04-07T11:28:00.009Z,44
2019-04-07T11:28:50.094Z,44
2019-04-07T11:29:45.186Z,44
2019-04-07T11:30:30.647Z,44.1
2019-04-07T11:31:21.194Z,44.1
2019-04-07T11:32:10.261Z,44.1
2019-04-07T11:33:00.755Z,44.1
2019-04-07T11:33:48.474Z,44.2
2019-04-07T11:34:38.027Z,44.2
2019-04-07T11:35:36.899Z,44.2
2019-04-07T11:36:27.603Z,44.2
2019-04-07T11:37:16.459Z,44.2
2019-04-07T11:38:00.346Z,44.3
2019-04-07T11:38:50.535Z,44.3
2019-04-07T11:39:39.723Z,44.3
2019-04-07T11:40:48.857Z,44.3
2019-04-07T11:41:30.606Z,44.3
2019-04-07T11:42:11.814Z,44.3
2019-04-07T11:43:00.446Z,44.3
2019-04-07T11:43:50.541Z,44.3
2019-04-07T11:44:40.083Z,44.3
2019-04-07T11:45:30.397Z,44.3
2019-04-07T11:46:21.980Z,44.3
2019-04-07T11:47:10.929Z,44.3
2019-04-07T11:48:01.116Z,44.4
2019-04-07T11:48:51.946Z,44.4
2019-04-07T11:49:48.431Z,44.3
2019-04-07T11:50:32.569Z,44.3
2019-04-07T11:51:21.601Z,44.3
2019-04-07T11:52:10.086Z,44.4
2019-04-07T11:53:02.063Z,44.3
2019-04-07T11:53:51.794Z,44.4
2019-04-07T11:54:43.814Z,44.4
2019-04-07T11:55:34.908Z,44.3
2019-04-07T11:56:21.741Z,44.3
2019-04-07T11:57:11.895Z,44.3
2019-04-07T11:58:39.772Z,44.3
2019-04-07T11:58:59.526Z,44.3
2019-04-07T11:59:49.054Z,44.3
2019-04-07T12:00:45.216Z,44.4
2019-04-07T12:01:31.273Z,44.3
2019-04-07T12:02:28.413Z,44.3
2019-04-07T12:03:12.236Z,44.3
2019-04-07T12:04:04.469Z,44.3
2019-04-07T12:06:26.746Z,44.3
2019-04-07T12:07:03.527Z,44.3
2019-04-07T12:08:03.233Z,44.3
2019-04-07T12:08:44.571Z,44.3
2019-04-07T12:09:33.611Z,44.3
2019-04-07T12:10:23.475Z,44.3
2019-04-07T12:11:17.965Z,44.3
2019-04-07T12:12:04.770Z,44.3
2019-04-07T12:12:53.800Z,44.3
2019-04-07T12:13:49.952Z,44.3
2019-04-07T12:14:34.445Z,44.3
2019-04-07T12:15:35.290Z,44.3
2019-04-07T12:16:13.489Z,44.3
2019-04-07T12:17:16.656Z,44.3
2019-04-07T12:17:55.655Z,44.3
2019-04-07T12:18:44.070Z,44.3
2019-04-07T12:19:36.651Z,44.3
2019-04-07T12:20:34.990Z,44.3
2019-04-07T12:21:31.518Z,44.3
2019-04-07T12:22:14.575Z,44.3
2019-04-07T12:22:56.414Z,44.3
2019-04-07T12:23:46.991Z,44.3
2019-04-07T12:24:50.495Z,44.3
2019-04-07T12:25:24.664Z,44.3
2019-04-07T12:26:14.648Z,44.3
2019-04-07T12:27:14.057Z,44.3
2019-04-07T12:27:54.863Z,44.3
2019-04-07T12:28:51.154Z,44.3
2019-04-07T12:29:35.310Z,44.3
2019-04-07T12:30:29.406Z,44.3
2019-04-07T12:31:17.411Z,44.3
2019-04-07T12:32:06.127Z,44.3
2019-04-07T12:32:55.711Z,44.3
2019-04-07T12:33:46.008Z,44.3
2019-04-07T12:34:36.066Z,44.3
2019-04-07T12:35:29.429Z,44.3
2019-04-07T12:36:18.994Z,44.3
2019-04-07T12:37:14.309Z,44.3
2019-04-07T12:38:01.519Z,44.3
2019-04-07T12:38:51.020Z,44.3
2019-04-07T12:39:41.712Z,44.3
2019-04-07T12:40:32.262Z,44.2
2019-04-07T12:41:35.756Z,44.2
2019-04-07T12:42:15.671Z,44.2
2019-04-07T12:42:58.060Z,44.2
2019-04-07T12:43:56.188Z,44.2
2019-04-07T12:44:36.436Z,44.2
2019-04-07T12:45:25.422Z,44.2
2019-04-07T12:46:17.703Z,44.2
2019-04-07T12:47:06.390Z,44.2
2019-04-07T12:47:56.067Z,44.2
2019-04-07T12:48:47.990Z,44.2
2019-04-07T12:49:49.708Z,44.2
2019-04-07T12:50:27.050Z,44.2
2019-04-07T12:51:23.483Z,44.2
2019-04-07T12:52:05.999Z,44.2
2019-04-07T12:52:57.733Z,44.2
2019-04-07T12:53:47.898Z,44.2
2019-04-07T12:54:46.006Z,44.2
2019-04-07T12:55:28.271Z,44.2
2019-04-07T12:56:18.585Z,44.2
2019-04-07T12:57:14.622Z,44.1
2019-04-07T12:57:58.019Z,44.1
2019-04-07T12:58:54.665Z,44.1
2019-04-07T12:59:39.594Z,44.2
2019-04-07T13:00:59.173Z,44.1
2019-04-07T13:01:38.193Z,44.1
2019-04-07T13:02:30.054Z,44.2
2019-04-07T13:03:18.662Z,44.1
2019-04-07T13:04:21.847Z,44.1
2019-04-07T13:05:05.261Z,44.1
2019-04-07T13:05:47.389Z,44.1
2019-04-07T13:06:45.974Z,44.1
2019-04-07T13:07:29.036Z,44.1
2019-04-07T13:08:24.597Z,44.1
2019-04-07T13:09:07.101Z,44.1
2019-04-07T13:10:05.436Z,44.1
2019-04-07T13:10:51.170Z,44.1
2019-04-07T13:11:57.058Z,44.1
2019-04-07T13:12:33.229Z,44.1
2019-04-07T13:13:19.103Z,44.1
2019-04-07T13:14:15.841Z,44.1
2019-04-07T13:14:57.178Z,44.1
2019-04-07T13:15:55.746Z,44.1
2019-04-07T13:16:39.167Z,44.1
2019-04-07T13:17:38.654Z,44.1
2019-04-07T13:18:19.331Z,44.1
2019-04-07T13:19:20.206Z,44.1
2019-04-07T13:20:02.275Z,44.1
2019-04-07T13:20:55.248Z,44.1
2019-04-07T13:21:40.346Z,44.1
2019-04-07T13:22:34.048Z,44.1
2019-04-07T13:23:21.084Z,44.1
2019-04-07T13:24:49.592Z,44.1
2019-04-07T13:25:18.605Z,44.1
2019-04-07T13:26:07.707Z,44.1
2019-04-07T13:26:57.278Z,44
2019-04-07T13:27:46.783Z,44
2019-04-07T13:28:35.833Z,44
2019-04-07T13:29:25.132Z,44.1
2019-04-07T13:30:15.335Z,44
2019-04-07T13:31:05.870Z,44
2019-04-07T13:32:00.125Z,44
2019-04-07T13:33:06.316Z,44
2019-04-07T13:33:39.342Z,44
2019-04-07T13:34:39.848Z,44
2019-04-07T13:35:12.868Z,44
2019-04-07T13:36:07.215Z,44
2019-04-07T13:37:00.100Z,44
2019-04-07T13:37:48.800Z,44
2019-04-07T13:38:35.395Z,44
2019-04-07T13:39:26.546Z,44
2019-04-07T13:40:21.746Z,44
2019-04-07T13:41:06.129Z,43.9
2019-04-07T13:42:04.082Z,44
2019-04-07T13:42:49.623Z,43.9
2019-04-07T13:43:42.725Z,43.9
2019-04-07T13:44:26.085Z,43.9
2019-04-07T13:45:23.410Z,43.9
2019-04-07T13:46:37.271Z,43.9
2019-04-07T13:46:56.412Z,43.9
2019-04-07T13:47:51.261Z,43.9
2019-04-07T13:48:37.925Z,43.9
2019-04-07T13:49:39.732Z,43.9
2019-04-07T13:50:19.155Z,43.9
2019-04-07T13:51:06.451Z,43.9
2019-04-07T13:53:03.039Z,43.9
2019-04-07T13:53:53.317Z,43.9
2019-04-07T13:54:35.355Z,43.9
2019-04-07T13:55:20.481Z,43.9
2019-04-07T13:56:08.284Z,43.9
2019-04-07T13:56:58.056Z,43.9
2019-04-07T13:57:46.519Z,43.9
2019-04-07T13:58:42.086Z,43.9
2019-04-07T13:59:29.401Z,43.9
2019-04-07T14:00:23.787Z,43.9
2019-04-07T14:01:08.457Z,43.9
2019-04-07T14:02:13.215Z,43.9
2019-04-07T14:02:48.918Z,43.9
2019-04-07T14:03:40.644Z,43.9
2019-04-07T14:04:43.499Z,44.1
2019-04-07T14:07:20.810Z,44.3
2019-04-07T14:08:03.969Z,44.4
2019-04-07T14:08:52.715Z,44.5
2019-04-07T14:09:44.126Z,44.6
2019-04-07T14:10:41.508Z,44.6
2019-04-07T14:11:25.460Z,44.8
2019-04-07T14:12:19.175Z,44.8
2019-04-07T14:13:10.963Z,44.9
2019-04-07T14:13:54.486Z,44.9
2019-04-07T14:14:45.176Z,44.9
2019-04-07T16:07:21.344Z,48.5
2019-04-07T16:08:04.168Z,48.7
2019-04-07T16:09:02.663Z,48.9
2019-04-07T16:10:11.478Z,49.2
2019-04-07T16:11:03.718Z,49.3
2019-04-07T16:12:02.289Z,49.6
2019-04-07T16:13:04.890Z,49.8
2019-04-07T16:13:34.817Z,49.9
2019-04-07T16:14:24.125Z,50
2019-04-07T16:15:18.154Z,50.2
2019-04-07T16:16:03.893Z,50.4
2019-04-07T16:17:06.401Z,50.5
2019-04-07T16:17:50.252Z,50.7
2019-04-07T16:18:32.423Z,50.8
2019-04-07T16:19:58.679Z,51
2019-04-07T16:20:49.535Z,51.4
2019-04-07T16:21:46.108Z,51.4
2019-04-07T16:22:29.891Z,51.6
2019-04-07T16:23:24.838Z,51.8
2019-04-07T16:24:09.406Z,52
2019-04-07T16:25:03.290Z,52.1
2019-04-07T16:25:48.615Z,52.3
2019-04-07T16:26:44.908Z,52.4
2019-04-07T16:27:32.936Z,52.7
2019-04-07T16:28:22.829Z,52.9
2019-04-07T16:29:15.441Z,52.9
2019-04-07T16:29:59.493Z,53.2
2019-04-07T16:30:55.425Z,53.3
2019-04-07T16:31:39.585Z,53.5
2019-04-07T16:32:33.882Z,53.6
2019-04-07T16:33:20.568Z,53.8
2019-04-07T16:34:16.517Z,54
2019-04-07T16:34:59.436Z,54.1
2019-04-07T16:36:01.561Z,54.3
2019-04-07T16:36:41.539Z,54.4
2019-04-07T16:37:35.809Z,54.7
2019-04-07T16:38:21.857Z,54.9
2019-04-07T16:39:13.885Z,55.1
2019-04-07T16:39:59.983Z,55.3
2019-04-07T16:40:51.430Z,55.4
2019-04-07T16:41:39.192Z,55.5
2019-04-07T16:42:31.454Z,55.7
2019-04-07T16:43:26.203Z,55.9
2019-04-07T16:44:17.005Z,56.2
2019-04-07T16:45:00.601Z,56.3
2019-04-07T16:45:56.283Z,56.5
2019-04-07T16:46:40.614Z,56.6
2019-04-07T16:47:40.914Z,56.8
2019-04-07T16:48:19.734Z,57
2019-04-07T16:49:25.719Z,57.1